createdAt,value
2022-12-23T00:02:59.335Z,95281.19
2022-12-23T00:06:01.280Z,95274.38
2022-12-23T00:09:03.605Z,95269.22
2022-12-23T00:12:23.881Z,95269.56
2022-12-23T00:15:25.830Z,95262.41
2022-12-23T00:18:27.324Z,95262.56
2022-12-23T00:21:28.937Z,95263.56
2022-12-23T00:24:30.461Z,95254.75
2022-12-23T00:27:37.323Z,95241.47
2022-12-23T00:30:52.753Z,95232.81
2022-12-23T00:33:54.406Z,95237.47
2022-12-23T00:36:56.058Z,95232.34
2022-12-23T00:40:16.562Z,95228.00
2022-12-23T00:43:18.117Z,95227.50
2022-12-23T00:46:19.731Z,95231.81
2022-12-23T00:49:39.953Z,95229.31
2022-12-23T00:52:41.523Z,95225.66
2022-12-23T00:55:46.382Z,95223.16
2022-12-23T00:58:47.891Z,95225.03
2022-12-23T01:02:08.654Z,95218.19
2022-12-23T01:05:29.726Z,95222.53
2022-12-23T01:08:31.305Z,95216.22
2022-12-23T01:11:32.914Z,95212.72
2022-12-23T01:14:34.452Z,95222.19
2022-12-23T01:17:36.322Z,95205.22
2022-12-23T01:20:39.288Z,95202.41
2022-12-23T01:23:40.820Z,95211.91
2022-12-23T01:26:42.382Z,95204.41
2022-12-23T01:29:43.911Z,95204.06
2022-12-23T01:32:45.446Z,95203.25
2022-12-23T01:35:47.716Z,95199.59
2022-12-23T01:38:50.063Z,95192.75
2022-12-23T01:42:10.265Z,95202.25
2022-12-23T01:45:29.393Z,95210.69
2022-12-23T01:48:30.997Z,95210.38
2022-12-23T01:51:33.020Z,95217.16
2022-12-23T01:54:36.328Z,95209.19
2022-12-23T01:57:42.170Z,95204.22
2022-12-23T02:01:04.758Z,95215.34
2022-12-23T02:04:09.676Z,95219.66
2022-12-23T02:07:30.282Z,95232.81
2022-12-23T02:10:44.743Z,95220.81
2022-12-23T02:14:33.332Z,95228.94
2022-12-23T02:17:59.097Z,95234.94
2022-12-23T02:21:35.771Z,95245.59
2022-12-23T02:25:11.466Z,95255.22
2022-12-23T02:28:22.172Z,95239.94
2022-12-23T02:31:26.666Z,95255.53
2022-12-23T02:34:55.756Z,95254.38
2022-12-23T02:38:14.896Z,95269.19
2022-12-23T02:41:41.285Z,95253.69
2022-12-23T02:44:58.400Z,95253.84
2022-12-23T02:48:08.429Z,95255.19
2022-12-23T02:51:14.456Z,95253.16
2022-12-23T02:54:21.753Z,95250.19
2022-12-23T02:57:29.333Z,95261.31
2022-12-23T03:00:31.081Z,95242.19
2022-12-23T03:03:32.715Z,95253.66
2022-12-23T03:06:43.235Z,95247.97
2022-12-23T03:10:02.577Z,95252.31
2022-12-23T03:13:15.047Z,95250.78
2022-12-23T03:16:31.689Z,95248.81
2022-12-23T03:19:43.507Z,95248.94
2022-12-23T03:22:57.976Z,95248.47
2022-12-23T03:26:07.303Z,95255.09
2022-12-23T03:29:19.756Z,95249.22
2022-12-23T03:32:24.585Z,95244.56
2022-12-23T03:35:32.200Z,95252.22
2022-12-23T03:38:37.780Z,95266.00
2022-12-23T03:41:47.313Z,95269.34
2022-12-23T03:45:11.152Z,95285.78
2022-12-23T03:48:15.291Z,95273.31
2022-12-23T03:51:20.232Z,95280.59
2022-12-23T03:54:32.799Z,95273.94
2022-12-23T03:57:44.620Z,95293.25
2022-12-23T04:00:59.795Z,95283.44
2022-12-23T04:04:08.201Z,95288.41
2022-12-23T04:07:21.306Z,95297.88
2022-12-23T04:10:23.956Z,95294.03
2022-12-23T04:13:27.381Z,95298.34
2022-12-23T04:16:29.716Z,95295.69
2022-12-23T04:19:31.342Z,95276.88
2022-12-23T04:22:32.937Z,95287.38
2022-12-23T04:25:34.485Z,95291.03
2022-12-23T04:28:36.158Z,95285.69
2022-12-23T04:31:37.774Z,95293.53
2022-12-23T04:34:39.423Z,95292.53
2022-12-23T04:37:41.198Z,95299.03
2022-12-23T04:40:48.219Z,95302.34
2022-12-23T04:43:52.966Z,95314.47
2022-12-23T04:46:55.018Z,95309.97
2022-12-23T04:49:56.715Z,95309.81
2022-12-23T04:52:58.747Z,95305.97
2022-12-23T04:56:00.522Z,95293.66
2022-12-23T04:59:02.371Z,95313.44
2022-12-23T05:02:04.109Z,95315.94
2022-12-23T05:05:06.032Z,95319.91
2022-12-23T05:08:07.530Z,95318.06
2022-12-23T05:11:09.108Z,95310.75
2022-12-23T05:14:11.649Z,95308.91
2022-12-23T05:17:13.192Z,95309.63
2022-12-23T05:20:14.725Z,95316.72
2022-12-23T05:23:16.267Z,95319.41
2022-12-23T05:26:17.956Z,95316.53
2022-12-23T05:29:19.460Z,95333.38
2022-12-23T05:32:21.526Z,95333.03
2022-12-23T05:35:24.937Z,95351.53
2022-12-23T05:38:26.830Z,95355.84
2022-12-23T05:41:28.483Z,95360.00
2022-12-23T05:44:30.147Z,95356.31
2022-12-23T05:47:31.789Z,95359.66
2022-12-23T05:50:33.615Z,95366.44
2022-12-23T05:53:36.726Z,95362.44
2022-12-23T05:56:38.255Z,95371.28
2022-12-23T05:59:39.806Z,95379.28
2022-12-23T06:02:41.761Z,95377.44
2022-12-23T06:05:44.040Z,95378.44
2022-12-23T06:08:45.571Z,95377.44
2022-12-23T06:11:47.140Z,95380.94
2022-12-23T06:14:48.653Z,95392.25
2022-12-23T06:17:50.145Z,95386.09
2022-12-23T06:20:51.730Z,95382.78
2022-12-23T06:23:53.910Z,95391.25
2022-12-23T06:26:57.411Z,95396.41
2022-12-23T06:29:59.279Z,95406.09
2022-12-23T06:33:00.800Z,95394.75
2022-12-23T06:36:02.362Z,95394.75
2022-12-23T06:39:03.935Z,95407.75
2022-12-23T06:42:05.539Z,95405.25
2022-12-23T06:45:07.719Z,95415.75
2022-12-23T06:48:09.232Z,95419.41
2022-12-23T06:51:11.543Z,95424.59
2022-12-23T06:54:13.155Z,95422.91
2022-12-23T06:57:14.829Z,95427.25
2022-12-23T07:00:16.867Z,95427.44
2022-12-23T07:03:18.520Z,95432.75
2022-12-23T07:06:20.087Z,95431.75
2022-12-23T07:09:21.594Z,95440.75
2022-12-23T07:12:23.167Z,95430.63
2022-12-23T07:15:24.756Z,95438.44
2022-12-23T07:18:26.324Z,95441.94
2022-12-23T07:21:29.814Z,95441.94
2022-12-23T07:24:31.600Z,95435.28
2022-12-23T07:27:33.188Z,95439.44
2022-12-23T07:30:35.566Z,95455.09
2022-12-23T07:33:37.133Z,95448.25
2022-12-23T07:36:38.763Z,95451.59
2022-12-23T07:39:40.353Z,95455.25
2022-12-23T07:42:45.724Z,95464.09
2022-12-23T07:45:51.395Z,95466.75
2022-12-23T07:48:57.245Z,95466.09
2022-12-23T07:51:58.801Z,95470.63
2022-12-23T07:55:00.323Z,95472.25
2022-12-23T07:58:02.551Z,95468.75
2022-12-23T08:01:07.898Z,95471.44
2022-12-23T08:04:09.676Z,95459.47
2022-12-23T08:07:11.210Z,95462.78
2022-12-23T08:10:13.075Z,95469.97
2022-12-23T08:13:14.585Z,95468.13
2022-12-23T08:16:16.204Z,95473.94
2022-12-23T08:19:17.754Z,95470.25
2022-12-23T08:22:19.274Z,95470.25
2022-12-23T08:25:20.825Z,95473.44
2022-12-23T08:28:22.359Z,95467.91
2022-12-23T08:31:27.769Z,95476.56
2022-12-23T08:34:29.385Z,95476.25
2022-12-23T08:37:30.989Z,95475.25
2022-12-23T08:40:32.559Z,95476.53
2022-12-23T08:43:36.151Z,95474.38
2022-12-23T08:46:38.370Z,95493.84
2022-12-23T08:49:39.974Z,95505.84
2022-12-23T08:52:41.541Z,95502.81
2022-12-23T08:55:45.530Z,95505.31
2022-12-23T08:58:49.586Z,95506.84
2022-12-23T09:01:51.239Z,95505.28
2022-12-23T09:04:52.876Z,95499.63
2022-12-23T09:07:54.486Z,95501.09
2022-12-23T09:10:56.119Z,95494.25
2022-12-23T09:13:59.197Z,95489.88
2022-12-23T09:17:00.747Z,95492.34
2022-12-23T09:20:02.309Z,95488.66
2022-12-23T09:23:05.618Z,95497.81
2022-12-23T09:26:09.280Z,95491.94
2022-12-23T09:29:10.819Z,95480.72
2022-12-23T09:32:12.523Z,95491.72
2022-12-23T09:35:14.094Z,95483.22
2022-12-23T09:38:15.648Z,95498.06
2022-12-23T09:41:57.106Z,95499.34
2022-12-23T09:45:13.610Z,95494.69
2022-12-23T09:48:21.039Z,95491.81
2022-12-23T09:51:23.651Z,95485.47
2022-12-23T09:54:29.390Z,95484.44
2022-12-23T09:57:38.933Z,95488.78
2022-12-23T10:00:48.988Z,95482.44
2022-12-23T10:04:24.683Z,95475.44
2022-12-23T10:07:44.035Z,95472.59
2022-12-23T10:10:51.069Z,95474.25
2022-12-23T10:13:56.751Z,95466.25
2022-12-23T10:17:05.408Z,95467.06
2022-12-23T10:20:18.178Z,95471.41
2022-12-23T10:23:33.074Z,95456.19
2022-12-23T10:26:53.331Z,95465.03
2022-12-23T10:29:55.815Z,95460.53
2022-12-23T10:33:12.342Z,95461.19
2022-12-23T10:36:51.372Z,95455.84
2022-12-23T10:40:08.767Z,95461.66
2022-12-23T10:43:28.337Z,95467.00
2022-12-23T10:46:53.644Z,95451.78
2022-12-23T10:50:23.328Z,95456.31
2022-12-23T10:53:50.179Z,95442.13
2022-12-23T10:56:52.858Z,95453.66
2022-12-23T10:59:54.457Z,95456.66
2022-12-23T11:02:56.089Z,95449.66
2022-12-23T11:05:59.417Z,95454.00
2022-12-23T11:09:03.328Z,95443.50
2022-12-23T11:12:08.059Z,95441.81
2022-12-23T11:15:34.016Z,95438.16
2022-12-23T11:18:41.787Z,95433.63
2022-12-23T11:21:55.359Z,95430.31
2022-12-23T11:25:18.199Z,95424.34
2022-12-23T11:28:22.142Z,95423.50
2022-12-23T11:31:32.549Z,95427.84
2022-12-23T11:38:25.308Z,95407.09
2022-12-23T11:41:33.667Z,95399.72
2022-12-23T11:44:40.519Z,95405.91
2022-12-23T11:47:43.193Z,95398.72
2022-12-23T11:50:44.713Z,95394.03
2022-12-23T11:53:46.230Z,95400.66
2022-12-23T11:56:52.001Z,95398.84
2022-12-23T12:00:01.572Z,95391.81
2022-12-23T12:03:05.321Z,95385.13
2022-12-23T12:06:07.849Z,95380.59
2022-12-23T12:09:13.449Z,95376.72
2022-12-23T12:12:21.058Z,95361.06
2022-12-23T12:15:35.653Z,95359.69
2022-12-23T12:18:39.935Z,95368.34
2022-12-23T12:21:41.492Z,95359.50
2022-12-23T12:24:52.554Z,95349.44
2022-12-23T12:28:02.915Z,95338.97
2022-12-23T12:31:23.606Z,95345.59
2022-12-23T12:34:31.059Z,95347.25
2022-12-23T12:37:54.550Z,95343.41
2022-12-23T12:41:33.334Z,95344.41
2022-12-23T12:44:47.481Z,95341.91
2022-12-23T12:48:13.037Z,95340.25
2022-12-23T12:51:43.624Z,95343.75
2022-12-23T12:54:54.763Z,95339.41
2022-12-23T12:57:56.486Z,95332.22
2022-12-23T13:01:26.605Z,95330.75
2022-12-23T13:04:58.905Z,95325.78
2022-12-23T13:08:20.885Z,95328.44
2022-12-23T13:11:57.992Z,95324.94
2022-12-23T13:15:11.724Z,95310.09
2022-12-23T13:18:34.412Z,95316.28
2022-12-23T13:21:48.330Z,95311.94
2022-12-23T13:25:05.213Z,95311.50
2022-12-23T13:28:30.261Z,95302.66
2022-12-23T13:31:54.105Z,95298.50
2022-12-23T13:35:05.819Z,95299.72
2022-12-23T13:38:58.710Z,95295.38
2022-12-23T13:42:06.031Z,95292.03
2022-12-23T13:45:15.077Z,95295.91
2022-12-23T13:48:28.986Z,95294.25
2022-12-23T13:52:12.056Z,95288.94
2022-12-23T13:55:44.527Z,95290.28
2022-12-23T13:58:50.644Z,95287.44
2022-12-23T14:01:52.666Z,95284.09
2022-12-23T14:04:59.518Z,95287.63
2022-12-23T14:08:08.025Z,95281.63
2022-12-23T14:11:21.192Z,95282.00
2022-12-23T14:14:25.092Z,95286.13
2022-12-23T14:17:44.634Z,95284.50
2022-12-23T14:21:06.027Z,95276.66
2022-12-23T14:24:35.671Z,95271.50
2022-12-23T14:27:44.312Z,95260.38
2022-12-23T14:30:46.139Z,95269.00
2022-12-23T14:33:48.777Z,95256.72
2022-12-23T14:37:21.818Z,95258.88
2022-12-23T14:40:38.672Z,95252.69
2022-12-23T14:43:46.048Z,95252.88
2022-12-23T14:46:47.561Z,95243.38
2022-12-23T14:49:49.862Z,95245.69
2022-12-23T14:53:00.646Z,95242.56
2022-12-23T14:56:23.392Z,95246.84
2022-12-23T14:59:48.121Z,95243.56
2022-12-23T15:02:55.341Z,95248.25
2022-12-23T15:05:58.709Z,95250.09
2022-12-23T15:09:02.336Z,95238.66
2022-12-23T15:12:15.112Z,95246.13
2022-12-23T15:15:19.607Z,95249.81
2022-12-23T15:18:21.443Z,95238.28
2022-12-23T15:21:32.719Z,95244.28
2022-12-23T15:24:34.820Z,95243.47
2022-12-23T15:27:37.087Z,95251.91
2022-12-23T15:30:51.588Z,95234.22
2022-12-23T15:34:04.852Z,95243.72
2022-12-23T15:37:12.752Z,95232.88
2022-12-23T15:40:24.142Z,95236.03
2022-12-23T15:43:26.066Z,95239.53
2022-12-23T15:46:30.467Z,95242.19
2022-12-23T15:49:32.324Z,95241.38
2022-12-23T15:52:33.951Z,95234.66
2022-12-23T15:55:39.364Z,95243.28
2022-12-23T15:58:42.416Z,95242.28
2022-12-23T16:01:44.181Z,95227.94
2022-12-23T16:04:54.671Z,95239.25
2022-12-23T16:08:11.123Z,95246.06
2022-12-23T16:11:18.646Z,95242.59
2022-12-23T16:14:35.580Z,95246.72
2022-12-23T16:17:37.267Z,95240.38
2022-12-23T16:20:45.377Z,95237.50
2022-12-23T16:23:52.966Z,95232.00
2022-12-23T16:26:56.306Z,95251.31
2022-12-23T16:30:02.711Z,95241.84
2022-12-23T16:33:24.110Z,95252.81
2022-12-23T16:36:25.873Z,95245.63
2022-12-23T16:39:27.450Z,95246.28
2022-12-23T16:42:28.969Z,95243.59
2022-12-23T16:45:35.047Z,95232.34
2022-12-23T16:48:40.086Z,95231.69
2022-12-23T16:51:42.133Z,95230.69
2022-12-23T16:54:43.660Z,95234.66
2022-12-23T16:57:45.886Z,95252.16
2022-12-23T17:00:48.133Z,95247.63
2022-12-23T17:03:50.332Z,95244.78
2022-12-23T17:06:51.863Z,95240.09
2022-12-23T17:09:54.275Z,95246.44
2022-12-23T17:12:55.835Z,95254.28
2022-12-23T17:15:57.523Z,95255.13
2022-12-23T17:18:59.141Z,95251.63
2022-12-23T17:22:03.031Z,95257.13
2022-12-23T17:25:04.865Z,95262.31
2022-12-23T17:28:10.798Z,95265.81
2022-12-23T17:31:15.482Z,95266.06
2022-12-23T17:34:24.413Z,95264.59
2022-12-23T17:37:25.988Z,95264.22
2022-12-23T17:40:27.632Z,95258.50
2022-12-23T17:43:29.393Z,95252.13
2022-12-23T17:46:31.308Z,95253.16
2022-12-23T17:49:32.847Z,95242.94
2022-12-23T17:52:34.366Z,95244.59
2022-12-23T17:55:35.921Z,95249.75
2022-12-23T17:58:37.461Z,95239.06
2022-12-23T18:01:39.065Z,95250.38
2022-12-23T18:04:40.647Z,95249.53
2022-12-23T18:07:42.163Z,95251.22
2022-12-23T18:10:44.532Z,95254.06
2022-12-23T18:13:47.733Z,95255.09
2022-12-23T18:16:49.389Z,95257.56
2022-12-23T18:19:51.141Z,95254.72
2022-12-23T18:22:54.605Z,95265.41
2022-12-23T18:25:57.320Z,95248.16
2022-12-23T18:28:58.808Z,95248.78
2022-12-23T18:32:00.773Z,95251.47
2022-12-23T18:35:02.403Z,95251.09
2022-12-23T18:38:04.144Z,95244.94
2022-12-23T18:41:05.682Z,95240.78
2022-12-23T18:44:15.430Z,95233.41
2022-12-23T18:47:17.015Z,95220.44
2022-12-23T18:50:18.641Z,95223.09
2022-12-23T18:53:25.171Z,95238.94
2022-12-23T18:56:27.031Z,95236.06
2022-12-23T18:59:30.307Z,95229.91
2022-12-23T19:02:32.022Z,95236.91
2022-12-23T19:05:33.863Z,95241.91
2022-12-23T19:08:37.189Z,95236.53
2022-12-23T19:11:38.810Z,95230.63
2022-12-23T19:14:40.353Z,95231.47
2022-12-23T19:17:42.064Z,95240.97
2022-12-23T19:20:45.309Z,95246.31
2022-12-23T19:23:46.872Z,95244.47
2022-12-23T19:26:48.484Z,95249.59
2022-12-23T19:29:51.079Z,95254.31
2022-12-23T19:32:53.931Z,95257.84
2022-12-23T19:35:55.496Z,95261.13
2022-12-23T19:38:57.543Z,95262.97
2022-12-23T19:41:59.094Z,95274.13
2022-12-23T19:45:00.985Z,95278.47
2022-12-23T19:48:02.563Z,95270.44
2022-12-23T19:51:12.783Z,95263.25
2022-12-23T19:54:14.560Z,95269.88
2022-12-23T19:57:16.118Z,95276.06
2022-12-23T20:00:17.791Z,95290.25
2022-12-23T20:03:19.457Z,95289.41
2022-12-23T20:06:24.578Z,95292.56
2022-12-23T20:09:26.126Z,95295.03
2022-12-23T20:12:28.077Z,95323.63
2022-12-23T20:15:29.708Z,95316.25
2022-12-23T20:18:31.559Z,95326.13
2022-12-23T20:21:34.190Z,95341.16
2022-12-23T20:24:35.948Z,95348.81
2022-12-23T20:27:38.823Z,95354.41
2022-12-23T20:30:42.313Z,95338.72
2022-12-23T20:33:43.899Z,95349.66
2022-12-23T20:36:45.721Z,95345.47
2022-12-23T20:39:47.315Z,95349.16
2022-12-23T20:42:48.867Z,95352.03
2022-12-23T20:45:52.010Z,95350.38
2022-12-23T20:48:53.916Z,95336.16
2022-12-23T20:51:55.429Z,95342.16
2022-12-23T20:54:57.123Z,95354.09
2022-12-23T20:58:18.619Z,95348.81
2022-12-23T21:01:21.874Z,95344.66
2022-12-23T21:04:23.516Z,95361.81
2022-12-23T21:07:26.279Z,95357.88
2022-12-23T21:10:27.854Z,95357.78
2022-12-23T21:13:29.529Z,95377.22
2022-12-23T21:16:31.950Z,95388.63
2022-12-23T21:19:34.784Z,95396.19
2022-12-23T21:22:36.312Z,95410.91
2022-12-23T21:25:37.810Z,95414.13
2022-12-23T21:28:40.868Z,95421.88
2022-12-23T21:31:42.537Z,95412.38
2022-12-23T21:34:44.048Z,95407.09
2022-12-23T21:37:45.588Z,95416.31
2022-12-23T21:40:47.795Z,95429.00
2022-12-23T21:43:49.865Z,95435.72
2022-12-23T21:46:51.507Z,95441.25
2022-12-23T21:49:53.247Z,95435.81
2022-12-23T21:52:54.893Z,95440.75
2022-12-23T21:56:10.444Z,95442.78
2022-12-23T21:59:13.907Z,95444.44
2022-12-23T22:02:16.584Z,95450.78
2022-12-23T22:05:18.184Z,95448.78
2022-12-23T22:08:19.739Z,95454.50
2022-12-23T22:11:24.621Z,95466.97
2022-12-23T22:14:26.160Z,95475.59
2022-12-23T22:17:27.696Z,95476.09
2022-12-23T22:20:29.191Z,95480.22
2022-12-23T22:23:30.719Z,95459.53
2022-12-23T22:26:33.953Z,95465.81
2022-12-23T22:29:35.461Z,95469.97
2022-12-23T22:32:42.290Z,95469.97
2022-12-23T22:35:53.955Z,95477.25
2022-12-23T22:38:57.646Z,95472.91
2022-12-23T22:41:59.203Z,95486.78
2022-12-23T22:45:00.967Z,95497.25
2022-12-23T22:48:02.620Z,95497.25
2022-12-23T22:51:09.437Z,95489.91
2022-12-23T22:54:11.122Z,95490.28
2022-12-23T22:57:12.667Z,95493.22
2022-12-23T23:00:14.634Z,95502.72
2022-12-23T23:03:16.299Z,95505.38
2022-12-23T23:06:18.779Z,95502.25
2022-12-23T23:09:22.008Z,95504.59
2022-12-23T23:12:23.551Z,95505.38
2022-12-23T23:15:25.076Z,95498.41
2022-12-23T23:18:27.677Z,95503.53
2022-12-23T23:21:29.299Z,95521.97
2022-12-23T23:24:31.537Z,95522.25
2022-12-23T23:27:33.424Z,95515.28
2022-12-23T23:30:35.260Z,95504.59
2022-12-23T23:33:36.885Z,95521.41
2022-12-23T23:36:38.590Z,95532.94
2022-12-23T23:39:40.211Z,95535.00
2022-12-23T23:42:41.783Z,95526.84
2022-12-23T23:45:43.452Z,95545.19
2022-12-23T23:48:45.121Z,95554.41
2022-12-23T23:51:46.781Z,95555.41
2022-12-23T23:54:48.260Z,95545.91
2022-12-23T23:57:49.767Z,95566.81
